Horicon, New York
Current Conditions -  °F | °C
As of 8:53 PM on Monday 24 Nov 2014 (Local Time) from KGFL Reporting Station
Clear Clear  
Wind Chill: 62°   Ceiling: Unl
Heat Index: 62°   Visibility: 10mi
Dew Point: 51°   Wind: 16mph
Humidity: 67%   Direction: 200°SSW
Pressure: 29.51"   Gusts: 22mph
Location:  43.7029°N, 73.6844°W
Report Text: KGFL 250153Z AUTO 20014G19KT 10SM CLR 17/11 A2951 RMK AO2 SLP996 T01670106
Loading
Personal Weather Stations






























Interactive Weather Map New forecast layout! Learn more

10-Day Weather Forecast

Advertisements
Track Severe Weather on mobile